Chickasha, OK (73023)

11:06 AM CST on February 08, 2016 (GMT -0600)
Chickasha Municipal | | Change Station
CLOSE
Current Station
Airport
Location: Chickasha,
Elevation: 1152 ft
Nearby Weather Stations
Active Advisory: Wind Advisory

Elev 1152 ft 35.10 °N, 97.97 °W | Updated 11 minutes ago

Overcast
Overcast
46 °F
Feels Like 38 °F
N
28
Wind Variable Wind from NNW
Gusts 36 mph

Today
High -- | Low -- °F
--% Chance of Precip.
Yesterday
High -- | Low -- °F
Precip. -- in
Pressure 30.34 in
Visibility 1.5 miles
Clouds
Windchill 38 °F
Dew Point 19 °F
Humidity 34%
Rainfall 0.00 in
Snow Depth Not available.
7:25 AM 6:07 PM
New Moon, 0% visible
METAR KCHK 081655Z AUTO 33024G31KT 1 1/2SM HZ VV007 08/M07 A3034 RMK AO2
Pressure 30.34 in
Visibility 1.5 miles
Clouds
Windchill 38 °F
Dew Point 19 °F
Humidity 34%
Rainfall 0.00 in
Snow Depth Not available.
7:25 AM 6:07 PM
New Moon, 0% visible
METAR KCHK 081655Z AUTO 33024G31KT 1 1/2SM HZ VV007 08/M07 A3034 RMK AO2

10-Day Weather Forecast

Almanac

Astronomy

Feb. 08, 2016 Rise Set
Actual Time
Civil Twilight
Nautical Twilight
Astronomical Twilight
Moon
Length of Visible Light
Length of Day
Tomorrow will be .
, % of the Moon is Illuminated

Today's Extremes

State Highs State Lows

Community

WunderPhotos

Upload Photos

1,891,471 photos uploaded!

WunderBlog® & News

Nearby

Air Quality

  Air Quality AQ Index Pollutant
Not available.

Snow Depth

Station Depth Elevation

Earthquake Activity

City Distance Mag. Time & Date
Minimum magnitude displayed is 2.5.

Coastal Water Temperatures

Place Temperature

Stations

Nearby Weather Stations

Station Location Temp. Windchill Dew Point Humidity Wind Precip. Elev Updated Type
                   

Watches & Warnings

Wind Advisory
Issued: 2:57 AM CST Feb. 8, 2016 – National Weather Service

... Wind Advisory in effect from 10 am this morning to 6 PM CST
this evening...

* timing... late this morning through early this evening.

* Winds... north 30 to 35 mph with gusts near 40 to 50 mph.

* Impacts... driving may become difficult at times especially on
west and east roadways. Residents should ensure lightweight
outdoor objects are secured.

Precautionary/preparedness actions...

Be careful if you have to travel or if you are working or playing
outside.